Disclaimer

Please do not use the information listed here in-flight or in-navigation, as they are not provided to us by the airports but are provided by volunteers, so they might be outdated.

Search


Regions


Airport information page

Radio informations:
TARAWA RDO - 118.1 MHz
FSS - 118.1 MHz

Airport informations:
Latitude: 01° 22' 53.89" N
Longitude: 173° 08' 49.33" E
Elevation: 9 feet - 3 meters
Operating hours: Remarks
Operating agency: Civil government, landing fees and diplomatic clearance may be required
Timezone: UTC+12
Fuel: Jet A1, without icing nhibitor.

100/130 octane gasoline, leaded, MIL-L-5572F (GREEN)

Runway information:
09/27 - 6598 x 135 feet< - >2011 x 41 meters

Recent METARs:
NGTA 160300Z 34007KT 9999 VCSH FEW016CB SCT017TCU BKN100 30/26 Q1006 RMK SHRS TO E
NGTA 160400Z 35003KT 9999 VCSH FEW016CB SCT018TCU BKN100 30/25 Q1006 RMK SHRS TO E
NGTA 160400Z 35003KT 9999 VCSH FEW016CB SCT018TCU BKN100 30/25 Q1006 RMK SHRS TO E

Airport on the map: